sensor_id;sensor_type;location;lat;lon;timestamp;P1;durP1;ratioP1;P2;durP2;ratioP2
17606;SDS011;8922;52.240;20.980;2023-02-26T00:01:49;2.57;;;2.27;;
17606;SDS011;8922;52.240;20.980;2023-02-26T00:04:20;2.50;;;2.30;;
17606;SDS011;8922;52.240;20.980;2023-02-26T00:06:51;2.80;;;2.33;;
17606;SDS011;8922;52.240;20.980;2023-02-26T00:09:22;3.43;;;2.20;;
17606;SDS011;8922;52.240;20.980;2023-02-26T00:11:52;2.40;;;2.10;;
17606;SDS011;8922;52.240;20.980;2023-02-26T00:14:23;2.60;;;2.00;;
17606;SDS011;8922;52.240;20.980;2023-02-26T00:16:54;2.17;;;1.97;;
17606;SDS011;8922;52.240;20.980;2023-02-26T00:19:58;2.77;;;1.93;;
17606;SDS011;8922;52.240;20.980;2023-02-26T00:22:31;2.43;;;2.10;;
17606;SDS011;8922;52.240;20.980;2023-02-26T00:25:01;2.17;;;1.90;;
17606;SDS011;8922;52.240;20.980;2023-02-26T00:27:32;3.27;;;1.83;;
17606;SDS011;8922;52.240;20.980;2023-02-26T00:30:01;3.00;;;2.07;;
17606;SDS011;8922;52.240;20.980;2023-02-26T00:32:33;3.60;;;1.80;;
17606;SDS011;8922;52.240;20.980;2023-02-26T00:35:03;2.13;;;1.90;;
17606;SDS011;8922;52.240;20.980;2023-02-26T00:37:56;2.93;;;2.10;;
17606;SDS011;8922;52.240;20.980;2023-02-26T00:40:34;3.07;;;1.93;;
17606;SDS011;8922;52.240;20.980;2023-02-26T00:43:08;3.20;;;2.10;;
17606;SDS011;8922;52.240;20.980;2023-02-26T00:45:46;2.40;;;2.20;;
17606;SDS011;8922;52.240;20.980;2023-02-26T00:48:40;2.20;;;1.90;;
17606;SDS011;8922;52.240;20.980;2023-02-26T00:51:19;2.00;;;1.80;;
17606;SDS011;8922;52.240;20.980;2023-02-26T00:54:00;2.87;;;1.97;;
17606;SDS011;8922;52.240;20.980;2023-02-26T00:56:37;3.10;;;1.97;;
17606;SDS011;8922;52.240;20.980;2023-02-26T00:59:06;2.03;;;1.67;;
17606;SDS011;8922;52.240;20.980;2023-02-26T01:01:35;2.03;;;1.80;;
17606;SDS011;8922;52.240;20.980;2023-02-26T01:04:04;1.80;;;1.70;;
17606;SDS011;8922;52.240;20.980;2023-02-26T01:06:34;1.47;;;1.33;;
17606;SDS011;8922;52.240;20.980;2023-02-26T01:09:14;1.63;;;1.53;;
17606;SDS011;8922;52.240;20.980;2023-02-26T01:11:53;1.80;;;1.50;;
17606;SDS011;8922;52.240;20.980;2023-02-26T01:14:27;1.90;;;1.80;;
17606;SDS011;8922;52.240;20.980;2023-02-26T01:16:59;2.00;;;1.60;;
17606;SDS011;8922;52.240;20.980;2023-02-26T01:19:37;2.03;;;1.83;;
17606;SDS011;8922;52.240;20.980;2023-02-26T01:22:11;1.80;;;1.50;;
17606;SDS011;8922;52.240;20.980;2023-02-26T01:24:49;2.37;;;1.80;;
17606;SDS011;8922;52.240;20.980;2023-02-26T01:27:26;2.20;;;1.73;;
17606;SDS011;8922;52.240;20.980;2023-02-26T01:29:55;2.40;;;1.87;;
17606;SDS011;8922;52.240;20.980;2023-02-26T01:32:25;2.73;;;1.97;;
17606;SDS011;8922;52.240;20.980;2023-02-26T01:35:18;3.17;;;1.90;;
17606;SDS011;8922;52.240;20.980;2023-02-26T01:38:00;1.73;;;1.63;;
17606;SDS011;8922;52.240;20.980;2023-02-26T01:40:52;2.13;;;1.93;;
17606;SDS011;8922;52.240;20.980;2023-02-26T01:43:50;2.00;;;1.63;;
17606;SDS011;8922;52.240;20.980;2023-02-26T01:46:33;2.30;;;2.07;;
17606;SDS011;8922;52.240;20.980;2023-02-26T01:49:16;2.57;;;1.93;;
17606;SDS011;8922;52.240;20.980;2023-02-26T01:51:48;2.13;;;1.63;;
17606;SDS011;8922;52.240;20.980;2023-02-26T01:54:19;3.03;;;1.90;;
17606;SDS011;8922;52.240;20.980;2023-02-26T01:56:51;2.23;;;1.73;;
17606;SDS011;8922;52.240;20.980;2023-02-26T01:59:31;1.97;;;1.70;;
17606;SDS011;8922;52.240;20.980;2023-02-26T02:02:05;2.13;;;1.93;;
17606;SDS011;8922;52.240;20.980;2023-02-26T02:04:37;2.07;;;1.93;;
17606;SDS011;8922;52.240;20.980;2023-02-26T02:07:09;3.17;;;2.10;;
17606;SDS011;8922;52.240;20.980;2023-02-26T02:09:41;2.10;;;1.90;;
17606;SDS011;8922;52.240;20.980;2023-02-26T02:12:15;1.87;;;1.53;;
17606;SDS011;8922;52.240;20.980;2023-02-26T02:15:02;3.50;;;2.27;;
17606;SDS011;8922;52.240;20.980;2023-02-26T02:17:40;3.10;;;2.27;;
17606;SDS011;8922;52.240;20.980;2023-02-26T02:23:38;2.50;;;2.03;;
17606;SDS011;8922;52.240;20.980;2023-02-26T02:29:46;3.13;;;2.27;;
17606;SDS011;8922;52.240;20.980;2023-02-26T02:32:37;2.77;;;2.20;;
17606;SDS011;8922;52.240;20.980;2023-02-26T02:35:13;2.10;;;1.80;;
17606;SDS011;8922;52.240;20.980;2023-02-26T02:37:50;2.47;;;2.27;;
17606;SDS011;8922;52.240;20.980;2023-02-26T02:40:26;2.47;;;2.10;;
17606;SDS011;8922;52.240;20.980;2023-02-26T02:43:01;2.57;;;2.00;;
17606;SDS011;8922;52.240;20.980;2023-02-26T02:45:37;2.70;;;2.03;;
17606;SDS011;8922;52.240;20.980;2023-02-26T02:48:13;2.17;;;1.97;;
17606;SDS011;8922;52.240;20.980;2023-02-26T02:50:51;2.60;;;2.20;;
17606;SDS011;8922;52.240;20.980;2023-02-26T02:53:27;2.53;;;2.33;;
17606;SDS011;8922;52.240;20.980;2023-02-26T02:56:03;2.33;;;2.10;;
17606;SDS011;8922;52.240;20.980;2023-02-26T02:58:38;2.43;;;1.97;;
17606;SDS011;8922;52.240;20.980;2023-02-26T03:01:12;1.93;;;1.73;;
17606;SDS011;8922;52.240;20.980;2023-02-26T03:03:49;2.57;;;1.97;;
17606;SDS011;8922;52.240;20.980;2023-02-26T03:06:23;2.70;;;2.27;;
17606;SDS011;8922;52.240;20.980;2023-02-26T03:08:52;2.53;;;2.10;;
17606;SDS011;8922;52.240;20.980;2023-02-26T03:11:22;2.30;;;2.00;;
17606;SDS011;8922;52.240;20.980;2023-02-26T03:13:50;2.60;;;2.40;;
17606;SDS011;8922;52.240;20.980;2023-02-26T03:16:24;2.77;;;2.13;;
17606;SDS011;8922;52.240;20.980;2023-02-26T03:19:20;2.67;;;2.13;;
17606;SDS011;8922;52.240;20.980;2023-02-26T03:21:56;2.77;;;2.30;;
17606;SDS011;8922;52.240;20.980;2023-02-26T03:24:32;2.83;;;2.07;;
17606;SDS011;8922;52.240;20.980;2023-02-26T03:27:07;2.70;;;2.20;;
17606;SDS011;8922;52.240;20.980;2023-02-26T03:29:49;2.27;;;2.07;;
17606;SDS011;8922;52.240;20.980;2023-02-26T03:32:24;2.30;;;2.07;;
17606;SDS011;8922;52.240;20.980;2023-02-26T03:35:05;2.60;;;2.40;;
17606;SDS011;8922;52.240;20.980;2023-02-26T03:37:39;2.87;;;2.30;;
17606;SDS011;8922;52.240;20.980;2023-02-26T03:40:14;2.30;;;1.80;;
17606;SDS011;8922;52.240;20.980;2023-02-26T03:42:49;2.53;;;1.80;;
17606;SDS011;8922;52.240;20.980;2023-02-26T03:45:24;1.80;;;1.70;;
17606;SDS011;8922;52.240;20.980;2023-02-26T03:48:00;1.83;;;1.70;;
17606;SDS011;8922;52.240;20.980;2023-02-26T03:50:36;1.77;;;1.57;;
17606;SDS011;8922;52.240;20.980;2023-02-26T03:53:10;1.97;;;1.70;;
17606;SDS011;8922;52.240;20.980;2023-02-26T03:55:45;2.00;;;1.70;;
17606;SDS011;8922;52.240;20.980;2023-02-26T03:58:18;1.70;;;1.60;;
17606;SDS011;8922;52.240;20.980;2023-02-26T04:00:51;1.97;;;1.83;;
17606;SDS011;8922;52.240;20.980;2023-02-26T04:03:27;2.13;;;1.63;;
17606;SDS011;8922;52.240;20.980;2023-02-26T04:06:03;3.30;;;1.67;;
17606;SDS011;8922;52.240;20.980;2023-02-26T04:08:33;1.57;;;1.30;;
17606;SDS011;8922;52.240;20.980;2023-02-26T04:11:04;2.50;;;1.63;;
17606;SDS011;8922;52.240;20.980;2023-02-26T04:13:35;2.60;;;1.53;;
17606;SDS011;8922;52.240;20.980;2023-02-26T04:16:04;2.47;;;1.77;;
17606;SDS011;8922;52.240;20.980;2023-02-26T04:18:33;1.50;;;1.40;;
17606;SDS011;8922;52.240;20.980;2023-02-26T04:21:03;2.63;;;2.00;;
17606;SDS011;8922;52.240;20.980;2023-02-26T04:23:32;1.97;;;1.70;;
17606;SDS011;8922;52.240;20.980;2023-02-26T04:26:01;1.73;;;1.33;;
17606;SDS011;8922;52.240;20.980;2023-02-26T04:28:30;1.70;;;1.50;;
17606;SDS011;8922;52.240;20.980;2023-02-26T04:30:58;3.53;;;1.70;;
17606;SDS011;8922;52.240;20.980;2023-02-26T04:33:27;2.23;;;1.67;;
17606;SDS011;8922;52.240;20.980;2023-02-26T04:35:58;1.83;;;1.57;;
17606;SDS011;8922;52.240;20.980;2023-02-26T04:38:29;1.93;;;1.73;;
17606;SDS011;8922;52.240;20.980;2023-02-26T04:40:58;1.83;;;1.50;;
17606;SDS011;8922;52.240;20.980;2023-02-26T04:43:26;1.77;;;1.67;;
17606;SDS011;8922;52.240;20.980;2023-02-26T04:45:55;2.30;;;1.60;;
17606;SDS011;8922;52.240;20.980;2023-02-26T04:48:27;2.10;;;1.43;;
17606;SDS011;8922;52.240;20.980;2023-02-26T04:50:56;1.90;;;1.60;;
17606;SDS011;8922;52.240;20.980;2023-02-26T04:53:26;1.47;;;1.37;;
17606;SDS011;8922;52.240;20.980;2023-02-26T04:55:56;2.03;;;1.40;;
17606;SDS011;8922;52.240;20.980;2023-02-26T04:58:25;1.60;;;1.50;;
17606;SDS011;8922;52.240;20.980;2023-02-26T05:00:55;2.10;;;1.90;;
17606;SDS011;8922;52.240;20.980;2023-02-26T05:03:25;1.63;;;1.53;;
17606;SDS011;8922;52.240;20.980;2023-02-26T05:05:54;2.07;;;1.87;;
17606;SDS011;8922;52.240;20.980;2023-02-26T05:08:22;1.93;;;1.73;;
17606;SDS011;8922;52.240;20.980;2023-02-26T05:10:51;2.03;;;1.50;;
17606;SDS011;8922;52.240;20.980;2023-02-26T05:13:22;1.63;;;1.40;;
17606;SDS011;8922;52.240;20.980;2023-02-26T05:15:51;1.57;;;1.47;;
17606;SDS011;8922;52.240;20.980;2023-02-26T05:18:21;1.90;;;1.50;;
17606;SDS011;8922;52.240;20.980;2023-02-26T05:20:52;2.10;;;1.63;;
17606;SDS011;8922;52.240;20.980;2023-02-26T05:23:23;2.63;;;1.60;;
17606;SDS011;8922;52.240;20.980;2023-02-26T05:25:53;2.50;;;1.83;;
17606;SDS011;8922;52.240;20.980;2023-02-26T05:28:24;1.83;;;1.63;;
17606;SDS011;8922;52.240;20.980;2023-02-26T05:30:54;1.97;;;1.77;;
17606;SDS011;8922;52.240;20.980;2023-02-26T05:33:24;2.13;;;1.93;;
17606;SDS011;8922;52.240;20.980;2023-02-26T05:35:54;2.90;;;1.53;;
17606;SDS011;8922;52.240;20.980;2023-02-26T05:38:24;3.00;;;1.70;;
17606;SDS011;8922;52.240;20.980;2023-02-26T05:40:54;1.70;;;1.60;;
17606;SDS011;8922;52.240;20.980;2023-02-26T05:43:25;1.90;;;1.40;;
17606;SDS011;8922;52.240;20.980;2023-02-26T05:45:55;3.97;;;1.90;;
17606;SDS011;8922;52.240;20.980;2023-02-26T05:48:24;1.50;;;1.30;;
17606;SDS011;8922;52.240;20.980;2023-02-26T05:50:52;1.87;;;1.43;;
17606;SDS011;8922;52.240;20.980;2023-02-26T05:53:21;2.27;;;1.60;;
17606;SDS011;8922;52.240;20.980;2023-02-26T05:55:50;2.33;;;1.33;;
17606;SDS011;8922;52.240;20.980;2023-02-26T05:58:22;1.43;;;1.27;;
17606;SDS011;8922;52.240;20.980;2023-02-26T06:00:53;2.87;;;1.53;;
17606;SDS011;8922;52.240;20.980;2023-02-26T06:03:22;1.00;;;0.77;;
17606;SDS011;8922;52.240;20.980;2023-02-26T06:05:51;2.30;;;1.20;;
17606;SDS011;8922;52.240;20.980;2023-02-26T06:08:20;1.73;;;1.10;;
17606;SDS011;8922;52.240;20.980;2023-02-26T06:10:49;1.23;;;1.13;;
17606;SDS011;8922;52.240;20.980;2023-02-26T06:13:18;1.07;;;0.97;;
17606;SDS011;8922;52.240;20.980;2023-02-26T06:15:48;1.10;;;1.00;;
17606;SDS011;8922;52.240;20.980;2023-02-26T06:18:20;1.63;;;1.10;;
17606;SDS011;8922;52.240;20.980;2023-02-26T06:20:49;1.37;;;1.27;;
17606;SDS011;8922;52.240;20.980;2023-02-26T06:23:21;1.30;;;0.83;;
17606;SDS011;8922;52.240;20.980;2023-02-26T06:25:51;1.90;;;1.20;;
17606;SDS011;8922;52.240;20.980;2023-02-26T06:28:20;3.10;;;1.17;;
17606;SDS011;8922;52.240;20.980;2023-02-26T06:30:50;1.50;;;0.90;;
17606;SDS011;8922;52.240;20.980;2023-02-26T06:33:21;1.40;;;1.20;;
17606;SDS011;8922;52.240;20.980;2023-02-26T06:35:52;2.30;;;1.27;;
17606;SDS011;8922;52.240;20.980;2023-02-26T06:38:23;2.40;;;1.30;;
17606;SDS011;8922;52.240;20.980;2023-02-26T06:40:52;1.20;;;1.10;;
17606;SDS011;8922;52.240;20.980;2023-02-26T06:43:21;1.53;;;1.10;;
17606;SDS011;8922;52.240;20.980;2023-02-26T06:45:50;1.60;;;1.20;;
17606;SDS011;8922;52.240;20.980;2023-02-26T06:48:24;1.30;;;1.00;;
17606;SDS011;8922;52.240;20.980;2023-02-26T06:50:55;2.10;;;1.30;;
17606;SDS011;8922;52.240;20.980;2023-02-26T06:53:23;1.40;;;1.30;;
17606;SDS011;8922;52.240;20.980;2023-02-26T06:55:52;1.33;;;1.10;;
17606;SDS011;8922;52.240;20.980;2023-02-26T06:58:21;1.30;;;1.20;;
17606;SDS011;8922;52.240;20.980;2023-02-26T07:00:50;2.20;;;0.90;;
17606;SDS011;8922;52.240;20.980;2023-02-26T07:03:19;2.13;;;1.03;;
17606;SDS011;8922;52.240;20.980;2023-02-26T07:05:50;1.60;;;1.10;;
17606;SDS011;8922;52.240;20.980;2023-02-26T07:08:19;1.83;;;1.00;;
17606;SDS011;8922;52.240;20.980;2023-02-26T07:10:48;1.00;;;0.90;;
17606;SDS011;8922;52.240;20.980;2023-02-26T07:13:19;1.83;;;0.90;;
17606;SDS011;8922;52.240;20.980;2023-02-26T07:15:48;2.37;;;0.90;;
17606;SDS011;8922;52.240;20.980;2023-02-26T07:18:19;1.40;;;1.10;;
17606;SDS011;8922;52.240;20.980;2023-02-26T07:20:51;1.80;;;0.90;;
17606;SDS011;8922;52.240;20.980;2023-02-26T07:23:22;1.23;;;0.90;;
17606;SDS011;8922;52.240;20.980;2023-02-26T07:25:52;1.63;;;0.97;;
17606;SDS011;8922;52.240;20.980;2023-02-26T07:28:21;1.83;;;1.17;;
17606;SDS011;8922;52.240;20.980;2023-02-26T07:30:54;1.93;;;1.30;;
17606;SDS011;8922;52.240;20.980;2023-02-26T07:33:24;1.97;;;1.17;;
17606;SDS011;8922;52.240;20.980;2023-02-26T07:35:55;1.43;;;1.20;;
17606;SDS011;8922;52.240;20.980;2023-02-26T07:38:26;2.13;;;1.23;;
17606;SDS011;8922;52.240;20.980;2023-02-26T07:40:58;2.93;;;1.17;;
17606;SDS011;8922;52.240;20.980;2023-02-26T07:43:27;2.10;;;1.47;;
17606;SDS011;8922;52.240;20.980;2023-02-26T07:46:01;2.17;;;1.17;;
17606;SDS011;8922;52.240;20.980;2023-02-26T07:48:30;2.13;;;1.23;;
17606;SDS011;8922;52.240;20.980;2023-02-26T07:51:00;1.67;;;1.10;;
17606;SDS011;8922;52.240;20.980;2023-02-26T07:53:30;1.20;;;1.00;;
17606;SDS011;8922;52.240;20.980;2023-02-26T07:55:59;1.57;;;1.33;;
17606;SDS011;8922;52.240;20.980;2023-02-26T07:58:28;1.53;;;1.30;;
17606;SDS011;8922;52.240;20.980;2023-02-26T08:00:57;1.37;;;1.17;;
17606;SDS011;8922;52.240;20.980;2023-02-26T08:03:26;2.40;;;1.10;;
17606;SDS011;8922;52.240;20.980;2023-02-26T08:08:39;1.87;;;1.40;;
17606;SDS011;8922;52.240;20.980;2023-02-26T08:11:10;2.53;;;1.40;;
17606;SDS011;8922;52.240;20.980;2023-02-26T08:13:39;1.40;;;1.03;;
17606;SDS011;8922;52.240;20.980;2023-02-26T08:16:08;1.33;;;1.20;;
17606;SDS011;8922;52.240;20.980;2023-02-26T08:18:37;1.50;;;1.40;;
17606;SDS011;8922;52.240;20.980;2023-02-26T08:21:06;1.77;;;1.10;;
17606;SDS011;8922;52.240;20.980;2023-02-26T08:23:36;1.60;;;1.20;;
17606;SDS011;8922;52.240;20.980;2023-02-26T08:26:08;1.40;;;1.27;;
17606;SDS011;8922;52.240;20.980;2023-02-26T08:28:39;1.30;;;1.20;;
17606;SDS011;8922;52.240;20.980;2023-02-26T08:31:08;1.63;;;1.10;;
17606;SDS011;8922;52.240;20.980;2023-02-26T08:33:37;1.70;;;1.30;;
17606;SDS011;8922;52.240;20.980;2023-02-26T08:36:06;2.00;;;1.20;;
17606;SDS011;8922;52.240;20.980;2023-02-26T08:38:36;1.10;;;1.00;;
17606;SDS011;8922;52.240;20.980;2023-02-26T08:41:05;2.00;;;1.10;;
17606;SDS011;8922;52.240;20.980;2023-02-26T08:43:34;1.67;;;1.20;;
17606;SDS011;8922;52.240;20.980;2023-02-26T08:46:03;1.33;;;1.20;;
17606;SDS011;8922;52.240;20.980;2023-02-26T08:48:33;2.03;;;1.20;;
17606;SDS011;8922;52.240;20.980;2023-02-26T08:51:02;0.93;;;0.87;;
17606;SDS011;8922;52.240;20.980;2023-02-26T08:53:31;0.80;;;0.70;;
17606;SDS011;8922;52.240;20.980;2023-02-26T08:55:59;1.27;;;0.77;;
17606;SDS011;8922;52.240;20.980;2023-02-26T08:58:29;1.20;;;0.87;;
17606;SDS011;8922;52.240;20.980;2023-02-26T09:01:01;0.97;;;0.90;;
17606;SDS011;8922;52.240;20.980;2023-02-26T09:03:30;0.60;;;0.60;;
17606;SDS011;8922;52.240;20.980;2023-02-26T09:05:59;0.73;;;0.70;;
17606;SDS011;8922;52.240;20.980;2023-02-26T09:08:28;0.70;;;0.70;;
17606;SDS011;8922;52.240;20.980;2023-02-26T09:10:59;1.20;;;0.70;;
17606;SDS011;8922;52.240;20.980;2023-02-26T09:13:30;1.80;;;1.07;;
17606;SDS011;8922;52.240;20.980;2023-02-26T09:15:59;1.17;;;0.83;;
17606;SDS011;8922;52.240;20.980;2023-02-26T09:18:28;1.00;;;0.90;;
17606;SDS011;8922;52.240;20.980;2023-02-26T09:20:56;2.20;;;0.90;;
17606;SDS011;8922;52.240;20.980;2023-02-26T09:23:25;0.80;;;0.80;;
17606;SDS011;8922;52.240;20.980;2023-02-26T09:25:54;1.77;;;1.10;;
17606;SDS011;8922;52.240;20.980;2023-02-26T09:28:24;1.20;;;0.93;;
17606;SDS011;8922;52.240;20.980;2023-02-26T09:30:54;0.80;;;0.80;;
17606;SDS011;8922;52.240;20.980;2023-02-26T09:33:23;1.87;;;1.03;;
17606;SDS011;8922;52.240;20.980;2023-02-26T09:35:52;0.80;;;0.80;;
17606;SDS011;8922;52.240;20.980;2023-02-26T09:38:21;0.97;;;0.87;;
17606;SDS011;8922;52.240;20.980;2023-02-26T09:40:50;1.67;;;1.13;;
17606;SDS011;8922;52.240;20.980;2023-02-26T09:46:40;1.60;;;1.20;;
17606;SDS011;8922;52.240;20.980;2023-02-26T09:49:17;1.45;;;1.23;;
17606;SDS011;8922;52.240;20.980;2023-02-26T09:52:04;1.30;;;1.07;;
17606;SDS011;8922;52.240;20.980;2023-02-26T09:54:45;1.47;;;1.37;;
17606;SDS011;8922;52.240;20.980;2023-02-26T09:57:20;1.30;;;1.17;;
17606;SDS011;8922;52.240;20.980;2023-02-26T09:59:56;1.43;;;1.23;;
17606;SDS011;8922;52.240;20.980;2023-02-26T10:02:34;1.50;;;1.40;;
17606;SDS011;8922;52.240;20.980;2023-02-26T10:05:17;2.00;;;1.60;;
17606;SDS011;8922;52.240;20.980;2023-02-26T10:07:52;1.40;;;1.30;;
17606;SDS011;8922;52.240;20.980;2023-02-26T10:10:28;1.70;;;1.40;;
17606;SDS011;8922;52.240;20.980;2023-02-26T10:13:06;2.90;;;1.53;;
17606;SDS011;8922;52.240;20.980;2023-02-26T10:15:47;2.20;;;1.40;;
17606;SDS011;8922;52.240;20.980;2023-02-26T10:18:22;1.93;;;1.40;;
17606;SDS011;8922;52.240;20.980;2023-02-26T10:20:57;1.87;;;1.20;;
17606;SDS011;8922;52.240;20.980;2023-02-26T10:23:37;1.73;;;1.30;;
17606;SDS011;8922;52.240;20.980;2023-02-26T10:26:12;1.60;;;1.50;;
17606;SDS011;8922;52.240;20.980;2023-02-26T10:31:26;5.30;;;3.30;;
17606;SDS011;8922;52.240;20.980;2023-02-26T10:36:37;3.50;;;1.60;;
17606;SDS011;8922;52.240;20.980;2023-02-26T10:39:20;2.67;;;1.67;;
17606;SDS011;8922;52.240;20.980;2023-02-26T10:41:58;3.20;;;1.60;;
17606;SDS011;8922;52.240;20.980;2023-02-26T10:44:31;3.87;;;1.73;;
17606;SDS011;8922;52.240;20.980;2023-02-26T10:47:08;4.13;;;1.87;;
17606;SDS011;8922;52.240;20.980;2023-02-26T10:49:51;6.20;;;2.10;;
17606;SDS011;8922;52.240;20.980;2023-02-26T10:52:25;2.50;;;1.70;;
17606;SDS011;8922;52.240;20.980;2023-02-26T10:55:03;2.30;;;1.87;;
17606;SDS011;8922;52.240;20.980;2023-02-26T10:57:49;2.13;;;1.60;;
17606;SDS011;8922;52.240;20.980;2023-02-26T11:00:29;2.83;;;1.73;;
17606;SDS011;8922;52.240;20.980;2023-02-26T11:02:58;2.30;;;1.33;;
17606;SDS011;8922;52.240;20.980;2023-02-26T11:05:30;2.07;;;1.13;;
17606;SDS011;8922;52.240;20.980;2023-02-26T11:08:03;1.60;;;1.27;;
17606;SDS011;8922;52.240;20.980;2023-02-26T11:10:44;1.40;;;0.83;;
17606;SDS011;8922;52.240;20.980;2023-02-26T11:13:17;1.93;;;1.30;;
17606;SDS011;8922;52.240;20.980;2023-02-26T11:15:47;1.33;;;0.90;;
17606;SDS011;8922;52.240;20.980;2023-02-26T11:18:20;1.40;;;1.10;;
17606;SDS011;8922;52.240;20.980;2023-02-26T11:20:53;2.20;;;1.10;;
17606;SDS011;8922;52.240;20.980;2023-02-26T11:23:26;1.10;;;0.90;;
17606;SDS011;8922;52.240;20.980;2023-02-26T11:25:59;1.03;;;0.87;;
17606;SDS011;8922;52.240;20.980;2023-02-26T11:28:34;0.67;;;0.67;;
17606;SDS011;8922;52.240;20.980;2023-02-26T11:31:08;0.97;;;0.70;;
17606;SDS011;8922;52.240;20.980;2023-02-26T11:33:40;1.57;;;0.80;;
17606;SDS011;8922;52.240;20.980;2023-02-26T11:36:13;1.27;;;0.80;;
17606;SDS011;8922;52.240;20.980;2023-02-26T11:38:51;0.73;;;0.73;;
17606;SDS011;8922;52.240;20.980;2023-02-26T11:41:24;2.00;;;0.90;;
17606;SDS011;8922;52.240;20.980;2023-02-26T11:43:57;1.97;;;0.90;;
17606;SDS011;8922;52.240;20.980;2023-02-26T11:46:29;1.80;;;0.90;;
17606;SDS011;8922;52.240;20.980;2023-02-26T11:48:58;0.77;;;0.77;;
17606;SDS011;8922;52.240;20.980;2023-02-26T11:51:29;1.50;;;1.00;;
17606;SDS011;8922;52.240;20.980;2023-02-26T11:54:00;2.00;;;0.90;;
17606;SDS011;8922;52.240;20.980;2023-02-26T11:56:34;1.37;;;1.10;;
17606;SDS011;8922;52.240;20.980;2023-02-26T11:59:07;2.63;;;1.20;;
17606;SDS011;8922;52.240;20.980;2023-02-26T12:01:45;2.33;;;1.10;;
17606;SDS011;8922;52.240;20.980;2023-02-26T12:04:17;1.37;;;1.17;;
17606;SDS011;8922;52.240;20.980;2023-02-26T12:06:50;2.73;;;1.80;;
17606;SDS011;8922;52.240;20.980;2023-02-26T12:09:22;1.40;;;1.30;;
17606;SDS011;8922;52.240;20.980;2023-02-26T12:12:03;2.30;;;1.50;;
17606;SDS011;8922;52.240;20.980;2023-02-26T12:14:49;1.53;;;1.33;;
17606;SDS011;8922;52.240;20.980;2023-02-26T12:17:53;1.90;;;1.40;;
17606;SDS011;8922;52.240;20.980;2023-02-26T12:21:05;2.20;;;1.37;;
17606;SDS011;8922;52.240;20.980;2023-02-26T12:24:06;1.70;;;1.37;;
17606;SDS011;8922;52.240;20.980;2023-02-26T12:27:01;3.33;;;1.50;;
17606;SDS011;8922;52.240;20.980;2023-02-26T12:29:47;2.73;;;1.67;;
17606;SDS011;8922;52.240;20.980;2023-02-26T12:32:39;1.67;;;1.47;;
17606;SDS011;8922;52.240;20.980;2023-02-26T12:35:46;2.47;;;1.60;;
17606;SDS011;8922;52.240;20.980;2023-02-26T12:38:38;2.57;;;1.70;;
17606;SDS011;8922;52.240;20.980;2023-02-26T12:44:26;4.17;;;1.30;;
17606;SDS011;8922;52.240;20.980;2023-02-26T12:47:25;3.77;;;1.43;;
17606;SDS011;8922;52.240;20.980;2023-02-26T12:50:20;1.67;;;1.37;;
17606;SDS011;8922;52.240;20.980;2023-02-26T12:53:05;2.23;;;1.30;;
17606;SDS011;8922;52.240;20.980;2023-02-26T12:56:18;1.40;;;0.90;;
17606;SDS011;8922;52.240;20.980;2023-02-26T12:59:27;1.43;;;1.10;;
17606;SDS011;8922;52.240;20.980;2023-02-26T13:02:37;2.20;;;1.30;;
17606;SDS011;8922;52.240;20.980;2023-02-26T13:06:13;1.00;;;0.80;;
17606;SDS011;8922;52.240;20.980;2023-02-26T13:09:11;2.27;;;0.90;;
17606;SDS011;8922;52.240;20.980;2023-02-26T13:12:14;1.40;;;0.70;;
17606;SDS011;8922;52.240;20.980;2023-02-26T13:15:01;1.20;;;1.10;;
17606;SDS011;8922;52.240;20.980;2023-02-26T13:17:46;1.10;;;0.83;;
17606;SDS011;8922;52.240;20.980;2023-02-26T13:20:22;1.13;;;0.90;;
17606;SDS011;8922;52.240;20.980;2023-02-26T13:22:54;1.93;;;0.83;;
17606;SDS011;8922;52.240;20.980;2023-02-26T13:25:29;2.43;;;1.10;;
17606;SDS011;8922;52.240;20.980;2023-02-26T13:28:07;3.17;;;1.17;;
17606;SDS011;8922;52.240;20.980;2023-02-26T13:30:51;2.17;;;0.90;;
17606;SDS011;8922;52.240;20.980;2023-02-26T13:33:23;1.53;;;0.73;;
17606;SDS011;8922;52.240;20.980;2023-02-26T13:35:56;2.60;;;1.40;;
17606;SDS011;8922;52.240;20.980;2023-02-26T13:38:30;3.60;;;1.07;;
17606;SDS011;8922;52.240;20.980;2023-02-26T13:41:06;3.07;;;1.20;;
17606;SDS011;8922;52.240;20.980;2023-02-26T13:43:51;2.13;;;1.20;;
17606;SDS011;8922;52.240;20.980;2023-02-26T13:46:38;4.50;;;1.23;;
17606;SDS011;8922;52.240;20.980;2023-02-26T13:49:24;1.53;;;0.90;;
17606;SDS011;8922;52.240;20.980;2023-02-26T13:52:00;3.97;;;1.17;;
17606;SDS011;8922;52.240;20.980;2023-02-26T13:54:32;1.27;;;1.00;;
17606;SDS011;8922;52.240;20.980;2023-02-26T13:57:23;4.40;;;1.30;;
17606;SDS011;8922;52.240;20.980;2023-02-26T14:00:08;2.40;;;1.40;;
17606;SDS011;8922;52.240;20.980;2023-02-26T14:02:55;2.23;;;1.17;;
17606;SDS011;8922;52.240;20.980;2023-02-26T14:11:24;7.00;;;2.93;;
17606;SDS011;8922;52.240;20.980;2023-02-26T14:14:32;1.70;;;1.10;;
17606;SDS011;8922;52.240;20.980;2023-02-26T14:17:26;2.00;;;1.10;;
17606;SDS011;8922;52.240;20.980;2023-02-26T14:20:13;2.23;;;1.23;;
17606;SDS011;8922;52.240;20.980;2023-02-26T14:25:35;3.17;;;1.47;;
17606;SDS011;8922;52.240;20.980;2023-02-26T14:31:16;2.50;;;1.20;;
17606;SDS011;8922;52.240;20.980;2023-02-26T14:33:59;4.73;;;1.53;;
17606;SDS011;8922;52.240;20.980;2023-02-26T14:36:48;2.17;;;1.10;;
17606;SDS011;8922;52.240;20.980;2023-02-26T14:39:24;2.80;;;1.47;;
17606;SDS011;8922;52.240;20.980;2023-02-26T14:42:00;1.93;;;1.00;;
17606;SDS011;8922;52.240;20.980;2023-02-26T14:44:34;1.93;;;0.77;;
17606;SDS011;8922;52.240;20.980;2023-02-26T14:47:11;2.33;;;1.30;;
17606;SDS011;8922;52.240;20.980;2023-02-26T14:49:42;2.43;;;1.10;;
17606;SDS011;8922;52.240;20.980;2023-02-26T14:52:30;1.93;;;1.10;;
17606;SDS011;8922;52.240;20.980;2023-02-26T14:55:43;1.63;;;1.27;;
17606;SDS011;8922;52.240;20.980;2023-02-26T14:58:30;3.03;;;1.40;;
17606;SDS011;8922;52.240;20.980;2023-02-26T15:01:33;2.10;;;1.13;;
17606;SDS011;8922;52.240;20.980;2023-02-26T15:04:32;1.50;;;1.30;;
17606;SDS011;8922;52.240;20.980;2023-02-26T15:07:18;3.80;;;1.47;;
17606;SDS011;8922;52.240;20.980;2023-02-26T15:10:05;2.03;;;1.00;;
17606;SDS011;8922;52.240;20.980;2023-02-26T15:12:58;3.97;;;1.40;;
17606;SDS011;8922;52.240;20.980;2023-02-26T15:16:12;2.43;;;1.37;;
17606;SDS011;8922;52.240;20.980;2023-02-26T15:18:56;4.73;;;1.40;;
17606;SDS011;8922;52.240;20.980;2023-02-26T15:21:48;2.57;;;1.40;;
17606;SDS011;8922;52.240;20.980;2023-02-26T15:24:36;2.50;;;1.33;;
17606;SDS011;8922;52.240;20.980;2023-02-26T15:27:06;3.17;;;1.00;;
17606;SDS011;8922;52.240;20.980;2023-02-26T15:29:43;2.23;;;1.20;;
17606;SDS011;8922;52.240;20.980;2023-02-26T15:32:14;3.03;;;1.10;;
17606;SDS011;8922;52.240;20.980;2023-02-26T15:34:53;3.20;;;1.63;;
17606;SDS011;8922;52.240;20.980;2023-02-26T15:37:26;1.93;;;1.47;;
17606;SDS011;8922;52.240;20.980;2023-02-26T15:40:02;5.47;;;2.80;;
17606;SDS011;8922;52.240;20.980;2023-02-26T15:42:35;2.13;;;1.13;;
17606;SDS011;8922;52.240;20.980;2023-02-26T15:45:10;3.43;;;1.27;;
17606;SDS011;8922;52.240;20.980;2023-02-26T15:48:02;2.70;;;1.60;;
17606;SDS011;8922;52.240;20.980;2023-02-26T15:50:35;4.00;;;1.53;;
17606;SDS011;8922;52.240;20.980;2023-02-26T15:53:11;2.60;;;1.37;;
17606;SDS011;8922;52.240;20.980;2023-02-26T15:55:48;1.47;;;1.10;;
17606;SDS011;8922;52.240;20.980;2023-02-26T16:03:43;3.80;;;1.50;;
17606;SDS011;8922;52.240;20.980;2023-02-26T16:06:16;4.23;;;1.43;;
17606;SDS011;8922;52.240;20.980;2023-02-26T16:08:50;2.40;;;1.20;;
17606;SDS011;8922;52.240;20.980;2023-02-26T16:11:20;8.80;;;4.67;;
17606;SDS011;8922;52.240;20.980;2023-02-26T16:13:51;8.07;;;2.73;;
17606;SDS011;8922;52.240;20.980;2023-02-26T16:16:23;3.17;;;1.67;;
17606;SDS011;8922;52.240;20.980;2023-02-26T16:18:55;4.03;;;1.70;;